Time;durP1;ratioP1;P1;durP2;ratioP2;P2;SDS_P1;SDS_P2;PMS_P1;PMS_P2;Temp;Humidity;BMP_temperature;BMP_pressure;BME280_temperature;BME280_humidity;BME280_pressure;Samples;Min_cycle;Max_cycle;Signal;HPM_P1;HPM_P2
2023/02/15 00:02:27;;;;;;;69.67;33.87;;;;;;;;;;5015753;28;20221;-82
2023/02/15 00:04:55;;;;;;;55.37;32.50;;;;;;;;;;5000723;28;20224;-83
2023/02/15 00:07:23;;;;;;;54.97;32.83;;;;;;;;;;5001200;28;20222;-82
2023/02/15 00:09:51;;;;;;;41.67;33.00;;;;;;;;;;5005116;28;20797;-82
2023/02/15 00:12:20;;;;;;;47.47;33.77;;;;;;;;;;5004140;28;20217;-82
2023/02/15 00:14:47;;;;;;;46.73;32.10;;;;;;;;;;5021696;28;20464;-83
2023/02/15 00:17:17;;;;;;;48.43;32.57;;;;;;;;;;5003564;28;20748;-84
2023/02/15 00:19:43;;;;;;;75.20;32.77;;;;;;;;;;5021876;28;20271;-84
2023/02/15 00:22:11;;;;;;;77.77;34.50;;;;;;;;;;5021160;28;20568;-83
2023/02/15 00:24:36;;;;;;;80.20;32.07;;;;;;;;;;5003621;28;20221;-83
2023/02/15 00:27:08;;;;;;;50.47;30.13;;;;;;;;;;5019984;28;20254;-82
2023/02/15 00:29:34;;;;;;;41.73;30.43;;;;;;;;;;4987984;28;20255;-82
2023/02/15 00:32:06;;;;;;;66.63;32.87;;;;;;;;;;4987332;28;20224;-81
2023/02/15 00:34:34;;;;;;;33.97;30.33;;;;;;;;;;4987757;28;20221;-81
2023/02/15 00:37:02;;;;;;;65.03;30.87;;;;;;;;;;5004224;28;20223;-81
2023/02/15 00:39:32;;;;;;;47.07;29.93;;;;;;;;;;4971224;28;20598;-81
2023/02/15 00:42:00;;;;;;;51.27;29.27;;;;;;;;;;5005167;28;20249;-81
2023/02/15 00:44:25;;;;;;;50.00;29.00;;;;;;;;;;5004755;28;20592;-82
2023/02/15 00:46:53;;;;;;;51.03;30.33;;;;;;;;;;4990539;28;20205;-81
2023/02/15 00:49:19;;;;;;;81.57;31.30;;;;;;;;;;4992195;28;20220;-82
2023/02/15 00:51:50;;;;;;;55.73;29.83;;;;;;;;;;4993819;28;20221;-81
2023/02/15 00:54:20;;;;;;;32.97;27.33;;;;;;;;;;5025909;28;20213;-82
2023/02/15 00:56:46;;;;;;;60.17;29.00;;;;;;;;;;5006969;28;20239;-82
2023/02/15 00:59:14;;;;;;;40.40;29.27;;;;;;;;;;4989290;28;20213;-83
2023/02/15 01:01:39;;;;;;;58.83;28.80;;;;;;;;;;4972566;28;20327;-83
2023/02/15 01:04:07;;;;;;;73.00;30.67;;;;;;;;;;4971668;28;20217;-83
2023/02/15 01:06:38;;;;;;;51.00;30.53;;;;;;;;;;4971642;28;20217;-82
2023/02/15 01:09:03;;;;;;;36.63;28.30;;;;;;;;;;4972191;28;20227;-83
2023/02/15 01:11:29;;;;;;;41.67;29.03;;;;;;;;;;4954089;28;20710;-84
2023/02/15 01:13:57;;;;;;;45.17;30.90;;;;;;;;;;4971013;28;20221;-83
2023/02/15 01:16:29;;;;;;;56.87;30.00;;;;;;;;;;4954112;28;20221;-83
2023/02/15 01:18:55;;;;;;;68.80;30.80;;;;;;;;;;4985060;28;20229;-82
2023/02/15 01:21:26;;;;;;;54.87;30.27;;;;;;;;;;4968787;28;20237;-83
2023/02/15 01:23:56;;;;;;;49.97;29.33;;;;;;;;;;4970190;28;20220;-82
2023/02/15 01:26:24;;;;;;;162.60;34.43;;;;;;;;;;4984981;28;20256;-83
2023/02/15 01:28:49;;;;;;;46.20;27.67;;;;;;;;;;4969789;28;20218;-82
2023/02/15 01:31:17;;;;;;;156.80;32.47;;;;;;;;;;5000697;28;20232;-82
2023/02/15 01:33:49;;;;;;;94.70;28.17;;;;;;;;;;5004369;28;20640;-83
2023/02/15 01:36:17;;;;;;;72.27;29.30;;;;;;;;;;5004874;28;20225;-83
2023/02/15 01:38:45;;;;;;;48.80;28.43;;;;;;;;;;5004773;28;20295;-82
2023/02/15 01:41:27;;;;;;;119.27;32.37;;;;;;;;;;5021189;28;20233;-82
2023/02/15 01:43:57;;;;;;;37.13;27.07;;;;;;;;;;5005019;28;20295;-82
2023/02/15 01:46:31;;;;;;;54.87;25.57;;;;;;;;;;4986730;28;20213;-83
2023/02/15 01:49:01;;;;;;;95.40;28.07;;;;;;;;;;4987522;28;20261;-82
2023/02/15 01:51:27;;;;;;;75.47;30.20;;;;;;;;;;4949346;28;20237;-82
2023/02/15 01:54:05;;;;;;;56.60;28.03;;;;;;;;;;4965471;28;20226;-81
2023/02/15 01:56:34;;;;;;;111.27;27.93;;;;;;;;;;4980491;28;20228;-83
2023/02/15 01:59:15;;;;;;;57.10;26.40;;;;;;;;;;4964303;28;20238;-82
2023/02/15 02:01:45;;;;;;;46.43;25.37;;;;;;;;;;4979013;28;20230;-82
2023/02/15 02:04:17;;;;;;;68.83;25.70;;;;;;;;;;4948405;28;20226;-81
2023/02/15 02:06:50;;;;;;;51.17;25.90;;;;;;;;;;4980661;28;20699;-81
2023/02/15 02:09:16;;;;;;;93.63;27.50;;;;;;;;;;4981261;28;20598;-81
2023/02/15 02:11:43;;;;;;;46.77;24.63;;;;;;;;;;4984083;28;20229;-82
2023/02/15 02:14:12;;;;;;;39.87;26.10;;;;;;;;;;4951386;28;20217;-81
2023/02/15 02:16:49;;;;;;;73.80;25.63;;;;;;;;;;4951159;28;20306;-82
2023/02/15 02:20:00;;;;;;;30.07;24.53;;;;;;;;;;4965709;28;20228;-82
2023/02/15 02:22:56;;;;;;;36.23;23.10;;;;;;;;;;4904733;29;20227;-81
2023/02/15 02:25:30;;;;;;;32.57;23.27;;;;;;;;;;4920118;29;20256;-82
2023/02/15 02:28:21;;;;;;;71.97;26.57;;;;;;;;;;4962040;28;20229;-82
2023/02/15 02:31:11;;;;;;;27.03;24.13;;;;;;;;;;4998716;28;20229;-82
2023/02/15 02:34:03;;;;;;;99.53;28.10;;;;;;;;;;4999386;28;20255;-82
2023/02/15 02:36:58;;;;;;;87.33;25.87;;;;;;;;;;4999463;28;20232;-81
2023/02/15 02:39:46;;;;;;;108.00;28.33;;;;;;;;;;4971973;28;20233;-82
2023/02/15 02:42:36;;;;;;;84.33;26.10;;;;;;;;;;4992806;28;20245;-82
2023/02/15 02:45:23;;;;;;;76.87;24.27;;;;;;;;;;4967594;28;20260;-81
2023/02/15 02:47:49;;;;;;;40.37;23.47;;;;;;;;;;4973755;28;20221;-82
2023/02/15 02:50:21;;;;;;;36.40;23.87;;;;;;;;;;4994377;28;20221;-80
2023/02/15 02:52:50;;;;;;;106.20;27.93;;;;;;;;;;4974111;28;20252;-80
2023/02/15 02:55:17;;;;;;;29.07;23.13;;;;;;;;;;4968980;28;20222;-82
2023/02/15 02:58:09;;;;;;;98.60;26.20;;;;;;;;;;4988107;28;20221;-81
2023/02/15 03:00:36;;;;;;;35.23;23.73;;;;;;;;;;4974716;28;20233;-81
2023/02/15 03:03:06;;;;;;;76.63;25.17;;;;;;;;;;4956054;28;20218;-82
2023/02/15 03:05:33;;;;;;;34.30;23.30;;;;;;;;;;4989693;28;20221;-80
2023/02/15 03:08:05;;;;;;;25.70;22.70;;;;;;;;;;4992794;28;20225;-81
2023/02/15 03:10:31;;;;;;;65.03;24.67;;;;;;;;;;4970850;28;20222;-80
2023/02/15 03:12:57;;;;;;;41.13;23.03;;;;;;;;;;4980684;28;20238;-82
2023/02/15 03:16:25;;;;;;;44.90;22.37;;;;;;;;;;4933416;28;20325;-81
2023/02/15 03:18:15;;;;;;;30.70;23.30;;;;;;;;;;4938466;28;20226;-83
2023/02/15 03:20:45;;;;;;;137.57;28.33;;;;;;;;;;4965008;28;20721;-82
2023/02/15 03:23:17;;;;;;;50.83;23.80;;;;;;;;;;4933461;28;20759;-82
2023/02/15 03:25:48;;;;;;;40.77;23.53;;;;;;;;;;4948893;28;20218;-80
2023/02/15 03:28:23;;;;;;;60.10;23.70;;;;;;;;;;4997682;28;20220;-81
2023/02/15 03:30:53;;;;;;;62.57;22.37;;;;;;;;;;4985244;28;20220;-82
2023/02/15 03:33:19;;;;;;;80.27;22.83;;;;;;;;;;5001655;28;20750;-81
2023/02/15 03:35:56;;;;;;;58.00;23.10;;;;;;;;;;4997363;28;20215;-81
2023/02/15 03:38:27;;;;;;;71.07;22.70;;;;;;;;;;4946702;28;20225;-82
2023/02/15 03:41:11;;;;;;;29.50;22.13;;;;;;;;;;4946601;28;20226;-82
2023/02/15 03:43:55;;;;;;;57.50;22.57;;;;;;;;;;4965873;28;20619;-82
2023/02/15 03:46:27;;;;;;;88.13;24.10;;;;;;;;;;4996846;28;20222;-80
2023/02/15 03:48:55;;;;;;;54.53;22.03;;;;;;;;;;4980039;28;20225;-81
2023/02/15 03:51:35;;;;;;;92.50;24.67;;;;;;;;;;4962202;28;20259;-81
2023/02/15 03:54:38;;;;;;;32.33;19.57;;;;;;;;;;4961534;28;20373;-80
2023/02/15 04:02:39;;;;;;;40.63;20.47;;;;;;;;;;5006019;28;20811;-80
2023/02/15 04:05:10;;;;;;;58.43;22.83;;;;;;;;;;4994485;28;20705;-80
2023/02/15 04:07:38;;;;;;;86.13;23.33;;;;;;;;;;4942278;28;20215;-81
2023/02/15 04:12:53;;;;;;;50.00;19.37;;;;;;;;;;4949419;28;20233;-81
2023/02/15 04:18:06;;;;;;;33.83;19.07;;;;;;;;;;4964677;28;20225;-81
2023/02/15 04:26:05;;;;;;;84.60;22.80;;;;;;;;;;4981811;28;20217;-80
2023/02/15 04:28:32;;;;;;;124.70;27.03;;;;;;;;;;4979557;28;20217;-81
2023/02/15 04:30:58;;;;;;;28.83;19.63;;;;;;;;;;4956787;28;20225;-79
2023/02/15 04:33:24;;;;;;;55.93;19.03;;;;;;;;;;4986006;28;20229;-80
2023/02/15 04:35:56;;;;;;;24.50;19.23;;;;;;;;;;4991254;28;20228;-80
2023/02/15 04:38:27;;;;;;;48.20;20.20;;;;;;;;;;4964961;28;20221;-80
2023/02/15 04:40:52;;;;;;;62.33;20.33;;;;;;;;;;4957283;28;20288;-81
2023/02/15 04:43:22;;;;;;;76.63;21.90;;;;;;;;;;4956820;28;20462;-81
2023/02/15 04:45:53;;;;;;;50.23;18.63;;;;;;;;;;4944815;28;20791;-80
2023/02/15 04:48:19;;;;;;;104.50;22.70;;;;;;;;;;4969788;28;20645;-80
2023/02/15 04:50:46;;;;;;;43.70;18.60;;;;;;;;;;4943478;28;20232;-81
2023/02/15 04:53:12;;;;;;;23.80;18.90;;;;;;;;;;4959713;28;20232;-80
2023/02/15 04:55:38;;;;;;;37.73;18.83;;;;;;;;;;4962179;28;20586;-83
2023/02/15 04:58:03;;;;;;;50.90;18.30;;;;;;;;;;4952676;28;20214;-80
2023/02/15 05:00:29;;;;;;;59.23;19.43;;;;;;;;;;4980581;28;20728;-80
2023/02/15 05:02:57;;;;;;;21.77;18.87;;;;;;;;;;4960310;28;20237;-81
2023/02/15 05:05:22;;;;;;;38.23;18.63;;;;;;;;;;4961523;28;20980;-81
2023/02/15 05:07:48;;;;;;;34.67;18.37;;;;;;;;;;4960743;28;20218;-81
2023/02/15 05:10:13;;;;;;;23.43;18.07;;;;;;;;;;4977084;28;20217;-81
2023/02/15 05:12:41;;;;;;;108.23;19.70;;;;;;;;;;4964861;28;20288;-82
2023/02/15 05:15:09;;;;;;;47.60;18.40;;;;;;;;;;4961553;28;20218;-81
2023/02/15 05:17:37;;;;;;;34.27;17.83;;;;;;;;;;4984499;28;20591;-81
2023/02/15 05:20:05;;;;;;;38.73;17.63;;;;;;;;;;4965687;28;20233;-81
2023/02/15 05:22:36;;;;;;;47.13;18.23;;;;;;;;;;4953623;28;20221;-82
2023/02/15 05:30:32;;;;;;;49.97;16.50;;;;;;;;;;4957050;28;20275;-81
2023/02/15 05:32:58;;;;;;;31.33;16.60;;;;;;;;;;4969603;28;20221;-83
2023/02/15 05:35:23;;;;;;;51.10;16.87;;;;;;;;;;4967935;28;20236;-83
2023/02/15 05:37:51;;;;;;;57.30;18.13;;;;;;;;;;4987272;28;20232;-82
2023/02/15 05:40:17;;;;;;;111.80;21.90;;;;;;;;;;4967047;28;20234;-80
2023/02/15 05:42:45;;;;;;;39.10;16.80;;;;;;;;;;4980958;28;20775;-82
2023/02/15 05:45:10;;;;;;;40.93;17.30;;;;;;;;;;4948466;28;20240;-83
2023/02/15 05:47:36;;;;;;;37.80;17.67;;;;;;;;;;4966639;28;20217;-82
2023/02/15 05:50:04;;;;;;;38.63;17.53;;;;;;;;;;4967462;28;20220;-83
2023/02/15 05:52:29;;;;;;;33.97;16.67;;;;;;;;;;4967908;28;20600;-81
2023/02/15 05:55:00;;;;;;;51.57;17.90;;;;;;;;;;4982147;28;20214;-82
2023/02/15 05:57:27;;;;;;;28.67;16.90;;;;;;;;;;4968332;28;20218;-83
2023/02/15 05:59:55;;;;;;;46.90;17.50;;;;;;;;;;4982832;28;20224;-83
2023/02/15 06:02:20;;;;;;;67.67;20.30;;;;;;;;;;4967869;28;20225;-82
2023/02/15 06:04:46;;;;;;;61.33;17.30;;;;;;;;;;4965716;28;20226;-82
2023/02/15 06:07:13;;;;;;;97.63;20.07;;;;;;;;;;4998465;28;20231;-82
2023/02/15 06:09:39;;;;;;;28.90;16.17;;;;;;;;;;4967239;28;20698;-81
2023/02/15 06:12:09;;;;;;;58.50;16.60;;;;;;;;;;4962412;28;20225;-83
2023/02/15 06:14:35;;;;;;;52.33;15.63;;;;;;;;;;4967514;28;20226;-82
2023/02/15 06:17:00;;;;;;;76.87;16.90;;;;;;;;;;4958065;28;20224;-83
2023/02/15 06:19:26;;;;;;;60.10;16.53;;;;;;;;;;4970507;28;20231;-82
2023/02/15 06:21:53;;;;;;;60.00;16.73;;;;;;;;;;4983147;28;20232;-81
2023/02/15 06:24:21;;;;;;;58.43;15.27;;;;;;;;;;4970534;28;20578;-82
2023/02/15 06:26:47;;;;;;;56.43;16.67;;;;;;;;;;4967581;28;20284;-83
2023/02/15 06:29:14;;;;;;;88.80;16.50;;;;;;;;;;4952236;28;20287;-83
2023/02/15 06:31:40;;;;;;;67.67;15.47;;;;;;;;;;4952262;28;20914;-81
2023/02/15 06:34:08;;;;;;;38.50;14.67;;;;;;;;;;4981988;28;20217;-82
2023/02/15 06:36:34;;;;;;;34.50;14.43;;;;;;;;;;4962732;28;20685;-81
2023/02/15 06:39:03;;;;;;;21.50;15.37;;;;;;;;;;4978645;28;20225;-83
2023/02/15 06:41:31;;;;;;;41.40;15.43;;;;;;;;;;4969506;28;20245;-83
2023/02/15 06:43:56;;;;;;;50.27;15.73;;;;;;;;;;4968029;28;20221;-82
2023/02/15 06:46:24;;;;;;;73.27;17.13;;;;;;;;;;4951784;28;20218;-82
2023/02/15 06:48:52;;;;;;;34.17;15.10;;;;;;;;;;4966694;28;20271;-82
2023/02/15 06:51:17;;;;;;;25.43;13.87;;;;;;;;;;4982901;28;20221;-83
2023/02/15 06:53:43;;;;;;;76.90;15.70;;;;;;;;;;4968077;28;20228;-82
2023/02/15 06:56:09;;;;;;;35.47;15.67;;;;;;;;;;4967179;28;20243;-83
2023/02/15 06:58:45;;;;;;;23.50;14.43;;;;;;;;;;4967187;28;20839;-82
2023/02/15 07:01:13;;;;;;;35.30;15.70;;;;;;;;;;4949711;28;20233;-80
2023/02/15 07:03:39;;;;;;;36.53;15.40;;;;;;;;;;4963854;28;20209;-81
2023/02/15 07:06:12;;;;;;;84.13;18.00;;;;;;;;;;4951285;28;21019;-84
2023/02/15 07:08:38;;;;;;;32.17;14.13;;;;;;;;;;4980706;28;20252;-83
2023/02/15 07:13:52;;;;;;;52.83;15.70;;;;;;;;;;4982300;28;20220;-83
2023/02/15 07:16:18;;;;;;;44.83;16.43;;;;;;;;;;4948659;28;20229;-82
2023/02/15 07:18:44;;;;;;;43.93;15.73;;;;;;;;;;4967037;28;20221;-83
2023/02/15 07:21:12;;;;;;;35.00;15.37;;;;;;;;;;4950207;28;20229;-84
2023/02/15 07:23:40;;;;;;;21.93;13.87;;;;;;;;;;4951071;28;20237;-82
2023/02/15 07:26:08;;;;;;;20.63;14.93;;;;;;;;;;4968781;28;20726;-83
2023/02/15 07:28:34;;;;;;;46.37;15.73;;;;;;;;;;4951064;28;20233;-83
2023/02/15 07:31:03;;;;;;;29.17;13.93;;;;;;;;;;4968381;28;20299;-84
2023/02/15 07:33:32;;;;;;;26.33;14.53;;;;;;;;;;4967610;28;20228;-84
2023/02/15 07:35:58;;;;;;;82.10;20.70;;;;;;;;;;4950412;28;20217;-84
2023/02/15 07:38:25;;;;;;;49.77;15.10;;;;;;;;;;4967364;28;20239;-83
2023/02/15 07:40:51;;;;;;;24.23;15.13;;;;;;;;;;4948409;28;20230;-83
2023/02/15 07:43:16;;;;;;;45.57;15.03;;;;;;;;;;4966872;28;20317;-84
2023/02/15 07:45:42;;;;;;;18.00;14.80;;;;;;;;;;4964793;28;20236;-83
2023/02/15 07:48:08;;;;;;;42.67;13.93;;;;;;;;;;4969127;28;20325;-83
2023/02/15 07:50:33;;;;;;;29.93;13.57;;;;;;;;;;4980751;28;20759;-83
2023/02/15 07:53:02;;;;;;;38.23;13.70;;;;;;;;;;4961548;28;20229;-83
2023/02/15 07:55:30;;;;;;;60.60;13.67;;;;;;;;;;4963258;28;20222;-81
2023/02/15 07:57:58;;;;;;;29.10;14.00;;;;;;;;;;4996725;28;20228;-81
2023/02/15 08:00:26;;;;;;;61.57;13.57;;;;;;;;;;4968007;28;20234;-81
2023/02/15 08:05:41;;;;;;;22.67;14.57;;;;;;;;;;4989568;28;20240;-82
2023/02/15 08:08:29;;;;;;;15.07;13.40;;;;;;;;;;4978406;28;20245;-81
2023/02/15 08:13:53;;;;;;;21.70;13.93;;;;;;;;;;4980415;28;20220;-83
2023/02/15 08:16:49;;;;;;;14.80;13.40;;;;;;;;;;4967581;28;20244;-83
2023/02/15 08:19:22;;;;;;;14.70;13.50;;;;;;;;;;4978763;28;20229;-81
2023/02/15 08:21:56;;;;;;;14.43;13.20;;;;;;;;;;4983066;28;20671;-82
2023/02/15 08:24:23;;;;;;;17.87;13.90;;;;;;;;;;4983420;28;20308;-82
2023/02/15 08:26:51;;;;;;;16.17;14.77;;;;;;;;;;4964879;28;20236;-84
2023/02/15 08:29:18;;;;;;;16.50;14.47;;;;;;;;;;4982761;28;20226;-81
2023/02/15 08:31:44;;;;;;;15.60;14.27;;;;;;;;;;4983409;28;20202;-82
2023/02/15 08:34:11;;;;;;;24.80;21.43;;;;;;;;;;4965748;28;20239;-82
2023/02/15 08:36:41;;;;;;;17.80;16.10;;;;;;;;;;4964606;28;20209;-82
2023/02/15 08:39:09;;;;;;;16.07;14.77;;;;;;;;;;4994498;28;20217;-81
2023/02/15 08:41:35;;;;;;;16.07;14.57;;;;;;;;;;4987912;28;20282;-81
2023/02/15 08:44:08;;;;;;;15.83;14.53;;;;;;;;;;4978786;28;20224;-82
2023/02/15 08:46:37;;;;;;;14.60;13.40;;;;;;;;;;4968602;28;20229;-82
2023/02/15 08:49:03;;;;;;;15.00;13.57;;;;;;;;;;4965262;28;20224;-81
2023/02/15 08:51:32;;;;;;;14.70;13.40;;;;;;;;;;4984455;28;20210;-82
2023/02/15 08:54:05;;;;;;;15.27;13.97;;;;;;;;;;4992908;28;20213;-82
2023/02/15 08:56:42;;;;;;;15.30;13.90;;;;;;;;;;4968489;28;20232;-79
2023/02/15 08:59:11;;;;;;;14.83;13.60;;;;;;;;;;5015491;28;20276;-80
2023/02/15 09:01:39;;;;;;;14.70;13.37;;;;;;;;;;4982156;28;20233;-80
2023/02/15 09:04:08;;;;;;;15.83;14.23;;;;;;;;;;4981424;28;20206;-80
2023/02/15 09:06:36;;;;;;;15.43;14.03;;;;;;;;;;4994979;28;20221;-81
2023/02/15 09:09:03;;;;;;;16.47;13.33;;;;;;;;;;4958830;28;20388;-82
2023/02/15 09:11:39;;;;;;;14.23;13.03;;;;;;;;;;4949570;28;20222;-85
2023/02/15 09:14:10;;;;;;;14.43;13.13;;;;;;;;;;4962486;28;20249;-82
2023/02/15 09:16:40;;;;;;;13.83;12.23;;;;;;;;;;4983400;28;20229;-83
2023/02/15 09:19:08;;;;;;;15.47;13.87;;;;;;;;;;4989843;28;20312;-84
2023/02/15 09:21:35;;;;;;;13.90;12.70;;;;;;;;;;4967960;28;20317;-85
2023/02/15 09:24:03;;;;;;;14.47;13.07;;;;;;;;;;4974177;28;20287;-84
2023/02/15 09:26:29;;;;;;;14.07;12.70;;;;;;;;;;4953199;28;20225;-83
2023/02/15 09:29:00;;;;;;;14.03;12.83;;;;;;;;;;4970676;28;20217;-84
2023/02/15 09:31:31;;;;;;;14.57;13.37;;;;;;;;;;4957591;28;20222;-83
2023/02/15 09:33:58;;;;;;;13.57;12.47;;;;;;;;;;4953428;28;20268;-84
2023/02/15 09:36:28;;;;;;;14.53;13.13;;;;;;;;;;4968061;28;20225;-84
2023/02/15 09:39:05;;;;;;;14.80;13.50;;;;;;;;;;4969272;28;20297;-83
2023/02/15 09:41:55;;;;;;;15.20;13.80;;;;;;;;;;4962825;28;20228;-81
2023/02/15 09:44:58;;;;;;;13.30;12.03;;;;;;;;;;4974703;28;20225;-83
2023/02/15 09:47:45;;;;;;;13.07;11.90;;;;;;;;;;4987493;28;20217;-84
2023/02/15 09:50:14;;;;;;;13.40;12.27;;;;;;;;;;4995020;28;20229;-83
2023/02/15 09:53:00;;;;;;;13.97;12.77;;;;;;;;;;4995847;28;20225;-84
2023/02/15 09:55:40;;;;;;;15.33;13.93;;;;;;;;;;4995364;28;20233;-85
2023/02/15 09:58:39;;;;;;;14.30;13.00;;;;;;;;;;4989987;28;20237;-83
2023/02/15 10:01:24;;;;;;;14.93;13.63;;;;;;;;;;5008248;28;20234;-83
2023/02/15 10:03:53;;;;;;;14.53;13.23;;;;;;;;;;4992138;28;20217;-83
2023/02/15 10:06:41;;;;;;;14.90;13.60;;;;;;;;;;5006949;28;20255;-82
2023/02/15 10:09:44;;;;;;;15.60;14.30;;;;;;;;;;4991929;28;20229;-84
2023/02/15 10:12:31;;;;;;;15.50;14.07;;;;;;;;;;4987500;28;20229;-86
2023/02/15 10:15:00;;;;;;;14.53;13.30;;;;;;;;;;5021030;28;20229;-84
2023/02/15 10:17:44;;;;;;;15.30;14.00;;;;;;;;;;4988347;28;20221;-85
2023/02/15 10:20:27;;;;;;;14.20;12.83;;;;;;;;;;4980995;28;20230;-84
2023/02/15 10:23:01;;;;;;;15.17;13.87;;;;;;;;;;5006053;28;20233;-84
2023/02/15 10:25:29;;;;;;;14.80;13.50;;;;;;;;;;5000244;28;20344;-83
2023/02/15 10:27:55;;;;;;;15.30;14.00;;;;;;;;;;4968459;28;20233;-81
2023/02/15 10:30:33;;;;;;;15.40;14.00;;;;;;;;;;4980311;28;20229;-82
2023/02/15 10:33:01;;;;;;;14.50;13.20;;;;;;;;;;4959357;28;20220;-81
2023/02/15 10:35:49;;;;;;;15.53;14.17;;;;;;;;;;4960597;28;20410;-82
2023/02/15 10:38:44;;;;;;;15.30;13.90;;;;;;;;;;4973583;28;20222;-81
2023/02/15 10:41:10;;;;;;;14.50;13.20;;;;;;;;;;4995427;28;20336;-81
2023/02/15 10:43:38;;;;;;;14.43;13.10;;;;;;;;;;4976714;28;20332;-81
2023/02/15 10:46:24;;;;;;;14.77;13.40;;;;;;;;;;4977168;28;20225;-82
2023/02/15 10:49:11;;;;;;;13.77;12.57;;;;;;;;;;4958933;28;20239;-81
2023/02/15 10:52:03;;;;;;;15.20;13.63;;;;;;;;;;4965002;28;20361;-82
2023/02/15 10:54:46;;;;;;;16.57;14.70;;;;;;;;;;4972768;28;20230;-81
2023/02/15 10:57:53;;;;;;;14.87;13.57;;;;;;;;;;4979683;28;20225;-80
2023/02/15 11:00:30;;;;;;;15.40;13.90;;;;;;;;;;4939176;28;20238;-80
2023/02/15 11:03:02;;;;;;;15.00;13.53;;;;;;;;;;4943993;28;20230;-80
2023/02/15 11:05:41;;;;;;;15.27;13.67;;;;;;;;;;4970589;28;20232;-78
2023/02/15 11:08:10;;;;;;;15.20;13.70;;;;;;;;;;4982247;28;20225;-78
2023/02/15 11:11:00;;;;;;;14.37;12.97;;;;;;;;;;4965602;28;20237;-79
2023/02/15 11:13:28;;;;;;;17.03;15.33;;;;;;;;;;4986152;28;20399;-80
2023/02/15 11:15:56;;;;;;;15.30;13.90;;;;;;;;;;4964776;28;20232;-80
2023/02/15 11:18:21;;;;;;;15.73;14.17;;;;;;;;;;4977223;28;20334;-80
2023/02/15 11:20:53;;;;;;;15.93;14.47;;;;;;;;;;4993678;28;21031;-82
2023/02/15 11:23:18;;;;;;;17.83;16.13;;;;;;;;;;4980900;28;20232;-78
2023/02/15 11:25:54;;;;;;;16.33;14.73;;;;;;;;;;4962430;28;20599;-81
2023/02/15 11:28:30;;;;;;;14.73;13.33;;;;;;;;;;4961338;28;20313;-81
2023/02/15 11:30:57;;;;;;;15.73;14.23;;;;;;;;;;4976250;28;20233;-81
2023/02/15 11:33:27;;;;;;;15.40;13.97;;;;;;;;;;4963272;28;20237;-80
2023/02/15 11:36:05;;;;;;;15.47;13.97;;;;;;;;;;4983649;28;20740;-81
2023/02/15 11:38:43;;;;;;;15.10;13.50;;;;;;;;;;4966251;28;20232;-81
2023/02/15 11:41:13;;;;;;;15.10;13.70;;;;;;;;;;4986153;28;20256;-81
2023/02/15 11:43:48;;;;;;;15.63;14.03;;;;;;;;;;4982696;28;20625;-81
2023/02/15 11:46:20;;;;;;;15.30;13.80;;;;;;;;;;4978755;28;20220;-80
2023/02/15 11:48:46;;;;;;;16.03;14.33;;;;;;;;;;4977985;28;20220;-80
2023/02/15 11:51:22;;;;;;;16.27;14.67;;;;;;;;;;4962201;28;20740;-81
2023/02/15 11:53:47;;;;;;;14.80;13.40;;;;;;;;;;4961156;28;20245;-81
2023/02/15 11:56:17;;;;;;;15.20;13.73;;;;;;;;;;4967459;28;20224;-81
2023/02/15 11:58:44;;;;;;;17.17;13.90;;;;;;;;;;4983297;28;20251;-81
2023/02/15 12:01:46;;;;;;;16.23;14.63;;;;;;;;;;4960136;28;20663;-81
2023/02/15 12:04:32;;;;;;;15.27;13.77;;;;;;;;;;4905425;28;20878;-81
2023/02/15 12:07:37;;;;;;;16.67;14.97;;;;;;;;;;4972588;28;20221;-80
2023/02/15 12:10:11;;;;;;;15.23;13.83;;;;;;;;;;4879808;29;20287;-81
2023/02/15 12:12:37;;;;;;;15.80;14.30;;;;;;;;;;4960888;28;20312;-80
2023/02/15 12:15:09;;;;;;;14.53;13.13;;;;;;;;;;4996611;28;20332;-80
2023/02/15 12:17:50;;;;;;;16.40;14.70;;;;;;;;;;4945510;28;20346;-80
2023/02/15 12:20:20;;;;;;;16.20;14.50;;;;;;;;;;4991881;28;20228;-81
2023/02/15 12:23:02;;;;;;;16.00;14.43;;;;;;;;;;4971375;28;20229;-81
2023/02/15 12:25:39;;;;;;;15.47;13.97;;;;;;;;;;4968754;28;20224;-81
2023/02/15 12:28:20;;;;;;;15.83;14.20;;;;;;;;;;4965454;28;20224;-81
2023/02/15 12:30:46;;;;;;;15.37;13.60;;;;;;;;;;4981483;28;20479;-81
2023/02/15 12:33:31;;;;;;;15.30;13.80;;;;;;;;;;4981910;28;20291;-81
2023/02/15 12:36:01;;;;;;;15.50;13.90;;;;;;;;;;4980444;28;20291;-81
2023/02/15 12:38:29;;;;;;;16.77;14.53;;;;;;;;;;4971145;28;20326;-80
2023/02/15 12:41:00;;;;;;;15.40;13.70;;;;;;;;;;4960738;28;20365;-81
2023/02/15 12:43:36;;;;;;;16.23;14.57;;;;;;;;;;4959494;28;20272;-81
2023/02/15 12:46:25;;;;;;;15.93;14.33;;;;;;;;;;4973962;28;20327;-81
2023/02/15 12:49:20;;;;;;;15.50;14.00;;;;;;;;;;4971636;28;20229;-80
2023/02/15 12:51:46;;;;;;;16.20;14.50;;;;;;;;;;4992705;28;20345;-81
2023/02/15 12:54:30;;;;;;;15.83;13.63;;;;;;;;;;4962341;28;20222;-81
2023/02/15 12:56:57;;;;;;;15.83;13.83;;;;;;;;;;4976955;28;20225;-82
2023/02/15 12:59:25;;;;;;;15.73;14.10;;;;;;;;;;4969544;28;20283;-81
2023/02/15 13:01:54;;;;;;;15.83;14.17;;;;;;;;;;4983246;28;20260;-81
2023/02/15 13:04:29;;;;;;;16.03;14.33;;;;;;;;;;4960497;28;20231;-81
2023/02/15 13:06:57;;;;;;;15.03;13.53;;;;;;;;;;4974768;28;20221;-81
2023/02/15 13:09:31;;;;;;;14.63;13.20;;;;;;;;;;4946414;28;20225;-80
2023/02/15 13:12:09;;;;;;;16.07;13.80;;;;;;;;;;5000832;28;20295;-81
2023/02/15 13:14:41;;;;;;;14.53;13.00;;;;;;;;;;4959892;28;20221;-81
2023/02/15 13:17:08;;;;;;;13.80;12.50;;;;;;;;;;4948250;28;20240;-80
2023/02/15 13:19:40;;;;;;;14.60;13.10;;;;;;;;;;4951121;28;20690;-81
2023/02/15 13:22:08;;;;;;;15.43;13.30;;;;;;;;;;4992632;28;20653;-81
2023/02/15 13:24:35;;;;;;;14.97;13.50;;;;;;;;;;4983383;28;20237;-80
2023/02/15 13:27:02;;;;;;;14.30;12.97;;;;;;;;;;4962882;28;20236;-81
2023/02/15 13:29:33;;;;;;;15.23;13.77;;;;;;;;;;4966254;28;20600;-81
2023/02/15 13:32:05;;;;;;;14.97;13.30;;;;;;;;;;4995122;28;20315;-81
2023/02/15 13:34:35;;;;;;;16.03;13.70;;;;;;;;;;4985541;28;20253;-81
2023/02/15 13:37:16;;;;;;;16.40;13.53;;;;;;;;;;4959316;28;20284;-81
2023/02/15 13:39:50;;;;;;;15.10;13.23;;;;;;;;;;4978430;28;20293;-80
2023/02/15 13:42:25;;;;;;;16.90;14.03;;;;;;;;;;4992310;28;20221;-81
2023/02/15 13:45:22;;;;;;;18.10;13.97;;;;;;;;;;4997695;28;20235;-81
2023/02/15 13:47:56;;;;;;;17.97;14.00;;;;;;;;;;4980711;28;20756;-82
2023/02/15 13:50:42;;;;;;;18.43;14.37;;;;;;;;;;4979396;28;20217;-82
2023/02/15 13:53:17;;;;;;;14.67;13.17;;;;;;;;;;4980493;28;20305;-82
2023/02/15 13:56:15;;;;;;;18.63;14.43;;;;;;;;;;4968264;28;20239;-81
2023/02/15 13:59:07;;;;;;;17.40;14.63;;;;;;;;;;4964174;28;20217;-82
2023/02/15 14:02:10;;;;;;;16.73;14.50;;;;;;;;;;4988297;28;20312;-85
2023/02/15 14:04:39;;;;;;;17.87;15.33;;;;;;;;;;4991105;28;20225;-86
2023/02/15 14:07:26;;;;;;;15.80;14.00;;;;;;;;;;5012101;28;20221;-85
2023/02/15 14:10:21;;;;;;;19.23;14.43;;;;;;;;;;4993233;28;20275;-85
2023/02/15 14:12:52;;;;;;;16.20;14.60;;;;;;;;;;4989535;28;20276;-87
2023/02/15 14:15:28;;;;;;;16.77;14.73;;;;;;;;;;4969197;28;20527;-85
2023/02/15 14:18:02;;;;;;;16.87;13.87;;;;;;;;;;4969603;28;20227;-85
2023/02/15 14:20:42;;;;;;;15.67;14.03;;;;;;;;;;4996738;28;20240;-85
2023/02/15 14:23:29;;;;;;;18.07;13.20;;;;;;;;;;4991519;28;20232;-84
2023/02/15 14:26:04;;;;;;;17.70;14.67;;;;;;;;;;4997686;28;20237;-84
2023/02/15 14:28:42;;;;;;;18.33;14.83;;;;;;;;;;4995496;28;20229;-84
2023/02/15 14:31:14;;;;;;;16.67;14.03;;;;;;;;;;4974386;28;20225;-85
2023/02/15 14:33:43;;;;;;;17.33;14.50;;;;;;;;;;4959783;28;20289;-84
2023/02/15 14:36:11;;;;;;;17.23;14.87;;;;;;;;;;4984433;28;20228;-85
2023/02/15 14:38:47;;;;;;;16.03;13.87;;;;;;;;;;4976456;28;20244;-85
2023/02/15 14:41:13;;;;;;;19.30;14.63;;;;;;;;;;4967947;28;20237;-84
2023/02/15 14:43:45;;;;;;;16.57;14.40;;;;;;;;;;4980540;28;20228;-85
2023/02/15 14:46:46;;;;;;;17.83;14.03;;;;;;;;;;5006515;28;20244;-85
2023/02/15 14:49:13;;;;;;;17.27;13.77;;;;;;;;;;4973243;28;20240;-84
2023/02/15 14:51:45;;;;;;;21.43;14.70;;;;;;;;;;4974281;28;20229;-84
2023/02/15 14:54:32;;;;;;;16.40;13.63;;;;;;;;;;5005942;28;20237;-82
2023/02/15 14:57:01;;;;;;;16.97;13.90;;;;;;;;;;4982685;28;20240;-84
2023/02/15 15:00:00;;;;;;;16.30;14.60;;;;;;;;;;4985617;28;20221;-86
2023/02/15 15:02:26;;;;;;;16.97;14.00;;;;;;;;;;4985565;28;20248;-85
2023/02/15 15:05:14;;;;;;;17.30;14.17;;;;;;;;;;4998195;28;20244;-83
2023/02/15 15:07:56;;;;;;;16.07;14.33;;;;;;;;;;4987482;28;20289;-84
2023/02/15 15:10:42;;;;;;;18.57;15.47;;;;;;;;;;4977388;28;20575;-85
2023/02/15 15:13:35;;;;;;;16.47;14.77;;;;;;;;;;4987830;28;20231;-84
2023/02/15 15:16:35;;;;;;;17.67;14.07;;;;;;;;;;4969227;28;20206;-80
2023/02/15 15:19:04;;;;;;;16.60;13.67;;;;;;;;;;4981631;28;20280;-83
2023/02/15 15:22:04;;;;;;;16.53;13.80;;;;;;;;;;5004112;28;20268;-85